Time;durP1;ratioP1;P1;durP2;ratioP2;P2;SDS_P1;SDS_P2;PMS_P1;PMS_P2;Temp;Humidity;BMP_temperature;BMP_pressure;BME280_temperature;BME280_humidity;BME280_pressure;Samples;Min_cycle;Max_cycle;Signal;HPM_P1;HPM_P2
2022/04/02 00:00:53;;;;;;;28.50;18.57;;;;;;;0.54;85.08;98418.50;5021316;28;20241;-75
2022/04/02 00:03:19;;;;;;;29.47;20.97;;;;;;;0.55;85.32;98414.16;5019066;28;20237;-77
2022/04/02 00:05:45;;;;;;;30.92;19.85;;;;;;;0.57;85.23;98420.13;5018967;28;20229;-75
2022/04/02 00:08:11;;;;;;;26.93;19.50;;;;;;;0.60;85.26;98414.81;5021390;28;20208;-75
2022/04/02 00:10:36;;;;;;;26.43;19.07;;;;;;;0.62;85.34;98413.84;5017531;28;20481;-76
2022/04/02 00:13:02;;;;;;;25.50;18.07;;;;;;;0.64;85.17;98408.59;5020736;28;20193;-76
2022/04/02 00:15:27;;;;;;;27.57;19.60;;;;;;;0.68;85.04;98409.34;5024938;28;20699;-75
2022/04/02 00:17:52;;;;;;;18.37;10.83;;;;;;;0.70;85.21;98413.50;5020534;28;20194;-75
2022/04/02 00:20:18;;;;;;;29.33;20.80;;;;;;;0.70;85.09;98418.66;5023025;28;20740;-75
2022/04/02 00:23:35;;;;;;;28.27;18.87;;;;;;;0.70;85.06;98412.66;5026153;28;20735;-76
2022/04/02 00:25:30;;;;;;;29.38;19.08;;;;;;;0.71;85.08;98414.38;5023100;28;20226;-75
2022/04/02 00:27:55;;;;;;;32.78;19.70;;;;;;;0.73;85.04;98407.34;5024676;28;20984;-75
2022/04/02 00:30:21;;;;;;;30.23;19.90;;;;;;;0.74;84.67;98421.97;5023686;28;20445;-75
2022/04/02 00:32:47;;;;;;;34.47;24.40;;;;;;;0.77;85.05;98411.50;5022350;28;20931;-74
2022/04/02 00:35:12;;;;;;;30.70;22.53;;;;;;;0.79;85.02;98412.28;5023527;28;20217;-75
2022/04/02 00:37:37;;;;;;;32.57;21.70;;;;;;;0.80;84.87;98414.78;5022828;28;20287;-75
2022/04/02 00:40:03;;;;;;;27.87;19.20;;;;;;;0.82;85.00;98414.75;5037462;28;20201;-75
2022/04/02 00:42:29;;;;;;;26.40;17.97;;;;;;;0.81;84.78;98419.06;5023017;28;20197;-75
2022/04/02 00:44:54;;;;;;;24.13;16.83;;;;;;;0.77;84.55;98408.91;5022502;28;20623;-75
2022/04/02 00:47:20;;;;;;;28.03;18.40;;;;;;;0.74;84.51;98415.06;5022439;28;20206;-76
2022/04/02 00:49:47;;;;;;;23.70;12.95;;;;;;;0.71;84.42;98414.38;5022215;28;20238;-75
2022/04/02 00:52:13;;;;;;;26.55;20.50;;;;;;;0.69;84.46;98416.16;5023423;28;20217;-76
2022/04/02 00:54:39;;;;;;;25.90;18.25;;;;;;;0.67;84.30;98413.63;5021133;28;20738;-75
2022/04/02 00:57:05;;;;;;;21.23;16.27;;;;;;;0.68;84.50;98411.91;5027671;28;20256;-75
2022/04/02 00:59:30;;;;;;;23.27;16.20;;;;;;;0.64;84.58;98406.00;5022423;28;20606;-74
2022/04/02 01:01:56;;;;;;;29.93;21.30;;;;;;;0.65;84.60;98403.38;5022083;28;20469;-75
2022/04/02 01:04:22;;;;;;;20.47;16.67;;;;;;;0.68;84.46;98410.16;5023457;28;20472;-75
2022/04/02 01:06:50;;;;;;;30.27;18.20;;;;;;;0.69;84.56;98414.41;5023668;28;20460;-76
2022/04/02 01:09:19;;;;;;;23.13;16.00;;;;;;;0.69;84.19;98411.84;5021492;28;20297;-76
2022/04/02 01:11:50;;;;;;;25.58;20.10;;;;;;;0.71;84.62;98409.19;5022482;28;20214;-75
2022/04/02 01:14:15;;;;;;;26.25;17.85;;;;;;;0.75;83.97;98416.72;5023686;28;20573;-76
2022/04/02 01:16:44;;;;;;;25.08;15.73;;;;;;;0.75;84.29;98405.56;5023715;28;20213;-74
2022/04/02 01:19:22;;;;;;;24.75;18.42;;;;;;;0.78;84.06;98416.59;5040365;28;20233;-75
2022/04/02 01:21:57;;;;;;;19.05;14.05;;;;;;;0.79;83.65;98423.47;5020874;28;20853;-74
2022/04/02 01:24:33;;;;;;;29.58;16.58;;;;;;;0.76;83.35;98415.84;5037344;28;20236;-80
2022/04/02 01:26:59;;;;;;;25.50;17.57;;;;;;;0.77;83.96;98424.44;5022582;28;20202;-74
2022/04/02 01:29:32;;;;;;;26.95;17.92;;;;;;;0.78;83.72;98420.94;5025147;28;20202;-75
2022/04/02 01:31:58;;;;;;;17.55;13.10;;;;;;;0.75;83.62;98427.06;5039050;28;20682;-79
2022/04/02 01:34:28;;;;;;;22.83;17.50;;;;;;;0.72;83.85;98419.44;5021513;28;20230;-76
2022/04/02 01:36:57;;;;;;;23.15;15.50;;;;;;;0.70;83.79;98416.09;5021814;28;20198;-78
2022/04/02 01:39:27;;;;;;;21.67;15.73;;;;;;;0.71;83.67;98419.53;5027312;28;20594;-77
2022/04/02 01:41:52;;;;;;;22.50;14.60;;;;;;;0.70;83.90;98418.66;5021760;28;20206;-77
2022/04/02 01:44:24;;;;;;;26.30;17.20;;;;;;;0.70;83.75;98423.00;5027618;28;20493;-79
2022/04/02 01:46:50;;;;;;;30.23;18.70;;;;;;;0.73;84.08;98417.69;5021480;28;20295;-74
2022/04/02 01:49:15;;;;;;;24.70;16.60;;;;;;;0.75;83.85;98421.91;5020313;28;20488;-77
2022/04/02 01:51:44;;;;;;;23.85;17.50;;;;;;;0.77;84.03;98424.44;5019413;28;20324;-79
2022/04/02 01:54:14;;;;;;;20.88;12.93;;;;;;;0.79;84.03;98420.88;5021986;28;20241;-78
2022/04/02 01:56:39;;;;;;;26.73;16.67;;;;;;;0.78;83.79;98421.75;5020827;28;20202;-77
2022/04/02 01:59:05;;;;;;;28.87;17.87;;;;;;;0.74;83.92;98424.56;5021521;28;20214;-79
2022/04/02 02:01:32;;;;;;;22.38;14.93;;;;;;;0.71;83.88;98420.38;5019623;28;20460;-75
2022/04/02 02:03:57;;;;;;;21.50;15.70;;;;;;;0.72;83.86;98421.19;5018293;28;20258;-76
2022/04/02 02:06:24;;;;;;;19.52;16.17;;;;;;;0.73;83.87;98425.44;5021750;28;20586;-79
2022/04/02 02:08:50;;;;;;;24.75;16.23;;;;;;;0.73;84.06;98423.72;5021722;28;20194;-77
2022/04/02 02:11:36;;;;;;;19.88;14.02;;;;;;;0.77;84.00;98424.44;5020797;28;20267;-78
2022/04/02 02:14:01;;;;;;;21.25;14.85;;;;;;;0.74;84.00;98425.41;5022292;28;20225;-75
2022/04/02 02:16:28;;;;;;;20.63;16.55;;;;;;;0.74;83.97;98425.41;5021102;28;20584;-74
2022/04/02 02:18:55;;;;;;;20.20;14.85;;;;;;;0.73;83.82;98435.78;5037383;28;20198;-78
2022/04/02 02:21:21;;;;;;;18.87;14.60;;;;;;;0.72;83.78;98428.94;5021922;28;20209;-80
2022/04/02 02:23:47;;;;;;;18.58;13.40;;;;;;;0.72;84.02;98426.38;5022524;28;20205;-78
2022/04/02 02:26:12;;;;;;;22.63;14.37;;;;;;;0.73;83.82;98428.91;5027826;28;20626;-76
2022/04/02 02:28:38;;;;;;;21.33;13.57;;;;;;;0.73;83.65;98428.03;5023061;28;20466;-77
2022/04/02 02:31:04;;;;;;;20.03;12.10;;;;;;;0.70;83.55;98420.41;5021037;28;20237;-74
2022/04/02 02:36:17;;;;;;;16.15;11.88;;;;;;;0.73;83.73;98435.78;5024515;28;20240;-73
2022/04/02 02:39:03;;;;;;;22.85;13.45;;;;;;;0.69;83.79;98432.50;5021000;28;20198;-73
2022/04/02 02:41:34;;;;;;;19.20;14.85;;;;;;;0.66;83.51;98432.63;5018968;28;20667;-78
2022/04/02 02:44:04;;;;;;;18.17;12.25;;;;;;;0.68;83.93;98425.66;5021528;28;20611;-75
2022/04/02 02:46:35;;;;;;;18.13;14.90;;;;;;;0.70;84.28;98425.59;5020619;28;20205;-75
2022/04/02 02:49:07;;;;;;;19.58;13.60;;;;;;;0.72;84.22;98440.13;5019670;28;20959;-76
2022/04/02 02:51:32;;;;;;;18.57;13.00;;;;;;;0.74;84.02;98432.31;5020547;28;20250;-75
2022/04/02 02:53:58;;;;;;;19.40;13.40;;;;;;;0.75;84.09;98431.41;5021579;28;20276;-73
2022/04/02 02:56:23;;;;;;;14.30;10.60;;;;;;;0.74;84.04;98438.31;5022425;28;20205;-77
2022/04/02 02:58:50;;;;;;;20.58;13.60;;;;;;;0.73;84.10;98435.78;5021411;28;20702;-73
2022/04/02 03:01:16;;;;;;;15.98;13.30;;;;;;;0.71;84.12;98438.47;5020397;28;20434;-77
2022/04/02 03:03:42;;;;;;;17.65;12.75;;;;;;;0.69;84.55;98432.50;5035122;28;20209;-78
2022/04/02 03:06:11;;;;;;;15.35;11.40;;;;;;;0.66;84.42;98437.81;5022347;28;20699;-75
2022/04/02 03:08:41;;;;;;;15.45;10.32;;;;;;;0.63;84.62;98440.53;5021483;28;20504;-76
2022/04/02 03:11:06;;;;;;;16.70;12.27;;;;;;;0.62;84.64;98441.41;5019435;28;20721;-74
2022/04/02 03:13:33;;;;;;;21.77;12.23;;;;;;;0.63;84.72;98445.69;5019723;28;20731;-75
2022/04/02 03:16:05;;;;;;;13.98;12.13;;;;;;;0.63;84.65;98448.28;5020174;28;20258;-73
2022/04/02 03:18:31;;;;;;;19.30;12.73;;;;;;;0.63;84.92;98441.34;5019375;28;20205;-74
2022/04/02 03:20:58;;;;;;;17.52;13.35;;;;;;;0.61;84.79;98448.31;5021860;28;20198;-73
2022/04/02 03:23:26;;;;;;;15.30;12.38;;;;;;;0.61;84.86;98445.75;5023299;28;20423;-75
2022/04/02 03:25:51;;;;;;;13.97;12.03;;;;;;;0.61;85.03;98444.91;5020309;28;20253;-74
2022/04/02 03:28:17;;;;;;;18.50;13.10;;;;;;;0.61;85.12;98447.50;5036955;28;20885;-73
2022/04/02 03:30:44;;;;;;;16.97;11.63;;;;;;;0.59;85.04;98441.53;5019760;28;21057;-75
2022/04/02 03:33:10;;;;;;;21.07;17.03;;;;;;;0.61;85.47;98445.75;5019278;28;20485;-75
2022/04/02 03:35:36;;;;;;;17.13;13.27;;;;;;;0.59;85.70;98439.78;5021136;28;20509;-74
2022/04/02 03:38:02;;;;;;;15.70;12.20;;;;;;;0.58;85.83;98442.47;5018706;28;20452;-72
2022/04/02 03:40:31;;;;;;;15.88;11.90;;;;;;;0.58;85.80;98440.72;5019058;28;20194;-76
2022/04/02 03:42:58;;;;;;;17.27;11.57;;;;;;;0.58;85.79;98440.72;5021009;28;20255;-77
2022/04/02 03:45:29;;;;;;;11.75;10.38;;;;;;;0.58;85.62;98437.28;5020557;28;20226;-73
2022/04/02 03:47:57;;;;;;;13.27;10.00;;;;;;;0.55;85.66;98440.00;5038390;28;20214;-77
2022/04/02 03:50:22;;;;;;;15.77;12.50;;;;;;;0.55;85.65;98440.00;5021262;28;20238;-72
2022/04/02 03:52:53;;;;;;;14.77;11.70;;;;;;;0.55;85.82;98435.69;5021408;28;20690;-75
2022/04/02 03:55:23;;;;;;;15.30;11.55;;;;;;;0.55;85.82;98438.25;5037360;28;20221;-73
2022/04/02 03:57:50;;;;;;;15.02;11.82;;;;;;;0.56;86.07;98445.09;5022601;28;20213;-74
2022/04/02 04:00:19;;;;;;;16.50;10.00;;;;;;;0.54;85.73;98448.66;5023175;28;20236;-77
2022/04/02 04:02:52;;;;;;;19.40;15.90;;;;;;;0.55;86.04;98443.44;5034550;28;20465;-77
2022/04/02 04:05:25;;;;;;;15.32;10.68;;;;;;;0.56;86.45;98452.00;5021674;28;20468;-76
2022/04/02 04:07:52;;;;;;;13.40;10.93;;;;;;;0.55;86.62;98458.09;5021352;28;20682;-72
2022/04/02 04:10:19;;;;;;;15.05;11.00;;;;;;;0.56;86.65;98463.19;5020587;28;20256;-75
2022/04/02 04:12:47;;;;;;;13.48;10.77;;;;;;;0.55;86.51;98456.34;5020920;28;20697;-77
2022/04/02 04:15:14;;;;;;;12.18;10.10;;;;;;;0.55;86.25;98458.94;5021145;28;20331;-75
2022/04/02 04:17:41;;;;;;;13.20;9.93;;;;;;;0.55;86.31;98461.50;5020927;28;20699;-77
2022/04/02 04:20:09;;;;;;;10.07;9.05;;;;;;;0.55;86.17;98461.50;5019607;28;20212;-75
2022/04/02 04:22:36;;;;;;;15.10;12.27;;;;;;;0.50;86.23;98458.28;5007958;28;20263;-73
2022/04/02 04:25:03;;;;;;;13.00;10.68;;;;;;;0.51;86.35;98465.09;5020346;28;20233;-73
2022/04/02 04:27:31;;;;;;;12.93;11.50;;;;;;;0.51;86.30;98459.94;5019862;28;20210;-72
2022/04/02 04:29:56;;;;;;;14.20;11.40;;;;;;;0.51;86.35;98470.28;5020111;28;20237;-75
2022/04/02 04:32:22;;;;;;;16.75;14.05;;;;;;;0.52;86.68;98465.97;5021530;28;20805;-76
2022/04/02 04:34:48;;;;;;;13.80;11.37;;;;;;;0.51;86.73;98465.09;5021596;28;20248;-77
2022/04/02 04:37:13;;;;;;;12.97;11.63;;;;;;;0.51;86.87;98470.28;5020449;28;20259;-75
2022/04/02 04:39:39;;;;;;;14.43;10.20;;;;;;;0.54;86.87;98477.06;5022120;28;20217;-74
2022/04/02 04:42:05;;;;;;;14.25;10.98;;;;;;;0.54;86.81;98479.66;5025083;28;20214;-73
2022/04/02 04:44:33;;;;;;;11.90;9.32;;;;;;;0.54;86.67;98480.50;5021150;28;20313;-74
2022/04/02 04:46:59;;;;;;;15.97;10.77;;;;;;;0.50;86.65;98484.09;5039047;28;20213;-77
2022/04/02 04:49:26;;;;;;;21.58;14.25;;;;;;;0.49;86.61;98476.41;5021750;28;21017;-74
2022/04/02 04:51:59;;;;;;;17.48;11.40;;;;;;;0.47;86.91;98484.25;5021931;28;20210;-76
2022/04/02 04:54:26;;;;;;;13.32;10.93;;;;;;;0.44;86.62;98486.94;5020533;28;20745;-74
2022/04/02 04:56:51;;;;;;;15.07;12.93;;;;;;;0.44;86.80;98490.38;5022260;28;20210;-75
2022/04/02 04:59:21;;;;;;;14.73;12.98;;;;;;;0.48;86.81;98490.25;5021362;28;20206;-77
2022/04/02 05:01:47;;;;;;;18.98;14.82;;;;;;;0.51;86.73;98488.38;5022424;28;20748;-74
2022/04/02 05:04:13;;;;;;;17.67;14.23;;;;;;;0.52;87.06;98490.06;5022957;28;20228;-75
2022/04/02 05:06:44;;;;;;;16.88;11.70;;;;;;;0.53;87.13;98499.47;5024116;28;20210;-76
2022/04/02 05:09:12;;;;;;;17.95;12.60;;;;;;;0.53;86.95;98504.66;5022112;28;20831;-77
2022/04/02 05:11:40;;;;;;;18.85;12.85;;;;;;;0.51;86.92;98503.88;5021261;28;20226;-74
2022/04/02 05:14:09;;;;;;;15.25;11.80;;;;;;;0.52;87.14;98507.31;5024890;28;20334;-72
2022/04/02 05:16:35;;;;;;;16.58;10.27;;;;;;;0.48;86.71;98501.41;5023218;28;20275;-76
2022/04/02 05:19:04;;;;;;;17.95;12.23;;;;;;;0.48;86.90;98505.75;5023970;28;20206;-79
2022/04/02 05:21:33;;;;;;;17.27;12.27;;;;;;;0.48;86.98;98510.91;5023367;28;20674;-77
2022/04/02 05:23:58;;;;;;;17.93;12.80;;;;;;;0.48;86.96;98511.75;5025203;28;20244;-74
2022/04/02 05:26:25;;;;;;;11.85;6.85;;;;;;;0.50;86.71;98514.28;5023799;28;20214;-75
2022/04/02 05:28:54;;;;;;;13.43;11.35;;;;;;;0.47;86.92;98511.81;5024865;28;20202;-74
2022/04/02 05:31:19;;;;;;;16.17;12.10;;;;;;;0.46;86.94;98523.91;5024787;28;20500;-76
2022/04/02 05:33:44;;;;;;;16.73;12.00;;;;;;;0.45;87.08;98522.19;5031392;28;20461;-73
2022/04/02 05:36:10;;;;;;;15.67;12.20;;;;;;;0.46;86.93;98528.19;5045962;28;20673;-75
2022/04/02 05:38:35;;;;;;;14.00;12.50;;;;;;;0.48;86.97;98527.25;5023092;28;21105;-74
2022/04/02 05:41:01;;;;;;;13.97;12.37;;;;;;;0.50;86.96;98535.78;5022176;28;20219;-74
2022/04/02 05:43:26;;;;;;;13.80;11.60;;;;;;;0.50;86.91;98542.69;5025264;28;20217;-77
2022/04/02 05:45:52;;;;;;;18.57;14.70;;;;;;;0.53;86.96;98537.41;5021747;28;20225;-75
2022/04/02 05:48:20;;;;;;;16.63;11.10;;;;;;;0.54;86.82;98541.66;5023584;28;20246;-77
2022/04/02 05:50:47;;;;;;;13.82;10.30;;;;;;;0.55;86.77;98543.34;5022675;28;20718;-74
2022/04/02 05:53:12;;;;;;;15.10;10.93;;;;;;;0.55;86.88;98554.53;5020772;28;20206;-76
2022/04/02 05:55:38;;;;;;;15.70;11.60;;;;;;;0.55;86.79;98554.53;5022238;28;20854;-77
2022/04/02 05:58:04;;;;;;;13.83;11.07;;;;;;;0.56;87.02;98556.19;5020496;28;20789;-73
2022/04/02 06:00:31;;;;;;;16.10;11.13;;;;;;;0.59;86.85;98558.66;5020464;28;20244;-73
2022/04/02 06:02:56;;;;;;;14.40;11.10;;;;;;;0.62;86.83;98563.72;5018900;28;20202;-73
2022/04/02 06:05:22;;;;;;;12.57;10.30;;;;;;;0.65;86.82;98560.19;5021800;28;20234;-77
2022/04/02 06:07:47;;;;;;;12.77;10.17;;;;;;;0.66;86.65;98567.84;5021348;28;20213;-73
2022/04/02 06:10:13;;;;;;;12.10;7.60;;;;;;;0.66;86.68;98578.19;5019440;28;20478;-75
2022/04/02 06:12:39;;;;;;;13.75;9.93;;;;;;;0.66;86.51;98578.19;5019428;28;20206;-74
2022/04/02 06:15:09;;;;;;;15.60;9.70;;;;;;;0.62;86.55;98575.78;5020321;28;20509;-77
2022/04/02 06:17:34;;;;;;;9.98;7.65;;;;;;;0.60;86.70;98583.63;5024115;28;20221;-76
2022/04/02 06:20:00;;;;;;;15.70;10.57;;;;;;;0.59;86.62;98578.50;5024558;28;20216;-75
2022/04/02 06:22:25;;;;;;;13.50;10.93;;;;;;;0.59;86.85;98581.06;5022672;28;21044;-75
2022/04/02 06:24:51;;;;;;;10.53;9.03;;;;;;;0.57;86.29;98590.66;5024192;28;20237;-78
2022/04/02 06:27:16;;;;;;;15.47;11.27;;;;;;;0.56;86.69;98583.78;5024681;28;20208;-76
2022/04/02 06:29:41;;;;;;;11.20;9.40;;;;;;;0.60;86.54;98583.63;5027224;28;20202;-75
2022/04/02 06:32:07;;;;;;;17.60;13.50;;;;;;;0.65;86.56;98594.63;5026362;28;20467;-75
2022/04/02 06:34:33;;;;;;;13.80;10.95;;;;;;;0.66;86.74;98593.69;5039281;28;20559;-73
2022/04/02 06:36:58;;;;;;;16.00;11.40;;;;;;;0.69;86.80;98599.66;5027422;28;20204;-77
2022/04/02 06:39:24;;;;;;;16.50;11.77;;;;;;;0.73;86.90;98603.78;5025829;28;20730;-78
2022/04/02 06:41:49;;;;;;;18.57;10.70;;;;;;;0.75;86.58;98604.56;5026671;28;20559;-75
2022/04/02 06:44:15;;;;;;;14.37;10.80;;;;;;;0.78;86.61;98609.63;5029636;28;20244;-79
2022/04/02 06:46:42;;;;;;;14.60;9.82;;;;;;;0.83;86.60;98616.28;5027825;28;20684;-74
2022/04/02 06:49:09;;;;;;;17.95;10.32;;;;;;;0.84;86.53;98612.81;5027188;28;20234;-73
2022/04/02 06:51:35;;;;;;;11.45;7.95;;;;;;;0.86;86.42;98621.34;5027062;28;20237;-77
2022/04/02 06:54:00;;;;;;;16.90;10.37;;;;;;;0.89;86.25;98625.53;5025192;28;20226;-74
2022/04/02 06:56:26;;;;;;;13.30;11.37;;;;;;;0.94;86.37;98622.78;5026643;28;20961;-77
2022/04/02 06:58:52;;;;;;;12.90;9.53;;;;;;;0.97;86.39;98630.41;5024249;28;20213;-74
2022/04/02 07:01:17;;;;;;;9.10;7.57;;;;;;;1.04;86.32;98637.84;5024432;28;20476;-74
2022/04/02 07:03:43;;;;;;;14.10;9.27;;;;;;;1.08;85.88;98636.84;5021597;28;20453;-75
2022/04/02 07:06:08;;;;;;;13.77;9.40;;;;;;;1.08;85.85;98642.00;5027368;28;20919;-80
2022/04/02 07:08:37;;;;;;;12.87;9.17;;;;;;;1.13;85.77;98636.63;5024990;28;20221;-75
2022/04/02 07:11:03;;;;;;;9.55;7.55;;;;;;;1.16;85.60;98639.13;5024388;28;20367;-75
2022/04/02 07:13:29;;;;;;;9.02;7.70;;;;;;;1.18;85.38;98659.72;5021936;28;20531;-79
2022/04/02 07:15:55;;;;;;;10.77;7.80;;;;;;;1.14;85.23;98660.78;5022599;28;20697;-72
2022/04/02 07:18:23;;;;;;;9.63;7.57;;;;;;;1.14;85.48;98659.03;5021455;28;20858;-75
2022/04/02 07:20:53;;;;;;;12.30;7.60;;;;;;;1.15;85.36;98663.28;5022159;28;20279;-80
2022/04/02 07:23:19;;;;;;;12.82;9.20;;;;;;;1.16;85.28;98671.88;5022019;28;20206;-75
2022/04/02 07:25:50;;;;;;;7.90;5.65;;;;;;;1.17;85.57;98678.75;5020911;28;20309;-72
2022/04/02 07:28:16;;;;;;;8.85;5.90;;;;;;;1.18;85.35;98683.00;5022710;28;20292;-73
2022/04/02 07:30:41;;;;;;;11.85;10.48;;;;;;;1.20;85.31;98683.81;5021916;28;21182;-73
2022/04/02 07:33:11;;;;;;;12.38;10.20;;;;;;;1.23;85.49;98687.09;5019740;28;20702;-73
2022/04/02 07:35:55;;;;;;;9.87;7.93;;;;;;;1.19;85.81;98693.31;5022880;28;20241;-76
2022/04/02 07:38:36;;;;;;;11.05;7.57;;;;;;;1.16;85.75;98692.56;5024087;28;20646;-75
2022/04/02 07:41:20;;;;;;;7.47;6.28;;;;;;;1.22;85.43;98700.94;5023729;28;20268;-76
2022/04/02 07:44:01;;;;;;;6.95;6.22;;;;;;;1.24;85.18;98695.69;5025243;28;20330;-74
2022/04/02 07:46:29;;;;;;;8.30;6.38;;;;;;;1.28;85.07;98707.63;5025870;28;20217;-73
2022/04/02 07:48:56;;;;;;;8.60;7.60;;;;;;;1.29;84.83;98711.88;5025174;28;20253;-73
2022/04/02 07:51:30;;;;;;;10.90;8.57;;;;;;;1.29;84.58;98709.28;5023233;28;20272;-76
2022/04/02 07:54:00;;;;;;;11.03;7.60;;;;;;;1.31;84.21;98705.72;5026313;28;20603;-78
2022/04/02 07:56:31;;;;;;;10.30;7.35;;;;;;;1.35;84.71;98705.59;5026703;28;20641;-77
2022/04/02 07:59:02;;;;;;;10.23;7.80;;;;;;;1.39;84.20;98722.69;5028848;28;20210;-75
2022/04/02 08:01:28;;;;;;;8.18;6.72;;;;;;;1.39;83.73;98727.88;5023829;28;20963;-77
2022/04/02 08:03:56;;;;;;;5.43;4.38;;;;;;;1.33;83.42;98721.22;5022104;28;20785;-73
2022/04/02 08:06:22;;;;;;;7.70;6.90;;;;;;;1.32;83.77;98722.09;5023951;28;20266;-72
2022/04/02 08:08:48;;;;;;;9.35;6.90;;;;;;;1.32;83.73;98730.72;5022104;28;20243;-75
2022/04/02 08:11:16;;;;;;;6.70;5.70;;;;;;;1.35;83.77;98734.94;5022805;28;20222;-75
2022/04/02 08:13:45;;;;;;;5.65;5.10;;;;;;;1.38;83.73;98737.38;5023227;28;20213;-74
2022/04/02 08:16:10;;;;;;;8.52;6.07;;;;;;;1.50;84.05;98734.28;5027419;28;20224;-76
2022/04/02 08:18:39;;;;;;;9.47;6.77;;;;;;;1.62;83.53;98742.44;5031129;28;20213;-78
2022/04/02 08:21:06;;;;;;;9.57;7.78;;;;;;;1.74;83.34;98747.97;5032230;28;20213;-73
2022/04/02 08:23:35;;;;;;;7.72;6.00;;;;;;;1.86;83.31;98740.59;5010536;28;20252;-74
2022/04/02 08:26:13;;;;;;;8.32;6.20;;;;;;;1.95;82.93;98745.41;5022986;28;20212;-75
2022/04/02 08:29:12;;;;;;;5.07;4.15;;;;;;;2.09;82.74;98753.41;5023967;28;20297;-78
2022/04/02 08:31:47;;;;;;;7.47;6.68;;;;;;;2.14;82.62;98755.81;5021590;28;20225;-75
2022/04/02 08:34:49;;;;;;;13.23;7.68;;;;;;;2.20;82.11;98761.56;5023548;28;20266;-74
2022/04/02 08:37:21;;;;;;;7.93;6.13;;;;;;;2.22;82.02;98762.34;5024941;28;20201;-76
2022/04/02 08:40:03;;;;;;;6.57;5.20;;;;;;;2.27;82.04;98761.28;5026134;28;20197;-75
2022/04/02 08:43:01;;;;;;;6.57;5.80;;;;;;;2.30;81.98;98772.38;5026457;28;20217;-77
2022/04/02 08:45:29;;;;;;;10.07;6.18;;;;;;;2.30;81.79;98774.97;5025419;28;20226;-72
2022/04/02 08:48:36;;;;;;;10.05;6.80;;;;;;;2.36;81.87;98777.28;5025435;28;20301;-73
2022/04/02 08:51:34;;;;;;;8.38;6.80;;;;;;;2.43;81.52;98783.03;4970091;28;20227;-76
2022/04/02 08:54:22;;;;;;;8.02;7.22;;;;;;;2.51;80.83;98780.97;4968424;28;20633;-73
2022/04/02 08:56:53;;;;;;;7.30;6.32;;;;;;;2.54;80.40;98786.03;5013350;28;20786;-75
2022/04/02 08:59:37;;;;;;;8.85;5.95;;;;;;;2.69;80.58;98787.09;5022616;28;20597;-73
2022/04/02 09:02:43;;;;;;;7.57;6.88;;;;;;;2.82;80.24;98798.59;5023202;28;20208;-75
2022/04/02 09:05:16;;;;;;;7.97;6.28;;;;;;;3.00;79.93;98811.66;5023137;28;20230;-78
2022/04/02 09:08:26;;;;;;;7.47;6.70;;;;;;;3.09;79.00;98803.44;5022761;28;20516;-79
2022/04/02 09:11:15;;;;;;;7.72;6.25;;;;;;;3.17;79.25;98810.88;5021430;28;20681;-73
2022/04/02 09:14:05;;;;;;;7.88;5.38;;;;;;;3.09;77.94;98811.22;5021790;28;20198;-72
2022/04/02 09:17:09;;;;;;;7.78;6.97;;;;;;;3.04;77.96;98815.78;5022729;28;20207;-73
2022/04/02 09:19:51;;;;;;;8.10;6.95;;;;;;;3.03;78.34;98821.88;5024128;28;20249;-73
2022/04/02 09:22:55;;;;;;;7.70;6.00;;;;;;;3.03;78.14;98827.06;5022611;28;20233;-73
2022/04/02 09:25:42;;;;;;;7.65;5.95;;;;;;;3.14;78.47;98829.19;4981569;28;20238;-75
2022/04/02 09:28:10;;;;;;;6.53;5.30;;;;;;;3.12;77.96;98833.59;5023007;28;20497;-75
2022/04/02 09:31:12;;;;;;;7.65;5.63;;;;;;;3.07;77.89;98836.38;5021558;28;20711;-73
2022/04/02 09:34:08;;;;;;;4.93;4.15;;;;;;;3.08;77.58;98835.50;5021979;28;20210;-75
2022/04/02 09:36:44;;;;;;;5.80;5.25;;;;;;;3.10;77.56;98831.06;5022546;28;20256;-75
2022/04/02 09:39:18;;;;;;;5.30;4.80;;;;;;;3.02;77.57;98838.34;5023912;28;20217;-74
2022/04/02 09:42:09;;;;;;;6.60;5.30;;;;;;;2.96;77.59;98833.44;5020820;28;20214;-74
2022/04/02 09:45:00;;;;;;;5.97;5.13;;;;;;;2.91;77.13;98830.22;5020488;28;20707;-74
2022/04/02 09:47:48;;;;;;;5.28;4.75;;;;;;;2.88;77.41;98844.16;5021749;28;20753;-74
2022/04/02 09:50:19;;;;;;;7.50;5.18;;;;;;;2.84;77.43;98838.28;5024107;28;20244;-75
2022/04/02 09:53:06;;;;;;;6.22;5.13;;;;;;;2.82;77.41;98849.63;5021333;28;20210;-75
2022/04/02 09:55:47;;;;;;;5.22;4.30;;;;;;;2.67;77.11;98840.75;5020624;28;20230;-73
2022/04/02 09:58:44;;;;;;;5.60;4.97;;;;;;;2.65;77.54;98845.19;5021494;28;20206;-73
2022/04/02 10:01:32;;;;;;;7.75;5.65;;;;;;;2.68;77.10;98845.06;5010798;28;20397;-74
2022/04/02 10:04:22;;;;;;;7.43;6.75;;;;;;;2.76;77.15;98844.72;5019697;28;20739;-73
2022/04/02 10:06:49;;;;;;;6.05;5.30;;;;;;;2.83;76.80;98846.94;5019247;28;20202;-74
2022/04/02 10:09:18;;;;;;;7.13;5.32;;;;;;;2.87;76.64;98853.69;5019133;28;20195;-73
2022/04/02 10:11:52;;;;;;;6.28;4.57;;;;;;;2.90;76.47;98852.72;5018293;28;20210;-74
2022/04/02 10:14:23;;;;;;;7.30;5.70;;;;;;;2.88;76.31;98863.16;5019764;28;20218;-73
2022/04/02 10:16:53;;;;;;;7.22;5.05;;;;;;;2.96;76.53;98861.97;5017922;28;20823;-74
2022/04/02 10:19:26;;;;;;;6.05;4.75;;;;;;;3.07;76.19;98863.16;5019239;28;20210;-75
2022/04/02 10:21:56;;;;;;;7.25;5.47;;;;;;;3.01;75.86;98867.81;5019667;28;20213;-73
2022/04/02 10:24:23;;;;;;;5.25;3.65;;;;;;;2.93;75.61;98862.97;5020307;28;20260;-73
2022/04/02 10:27:01;;;;;;;5.72;4.63;;;;;;;2.75;75.24;98864.59;5021459;28;20202;-74
2022/04/02 10:30:06;;;;;;;6.45;4.57;;;;;;;2.64;76.07;98885.81;5023300;28;20275;-74
2022/04/02 10:32:51;;;;;;;8.02;5.78;;;;;;;2.68;76.16;98873.56;5016562;28;20489;-76
2022/04/02 10:35:19;;;;;;;6.32;4.55;;;;;;;2.76;76.29;98881.84;5019208;28;20233;-76
2022/04/02 10:38:04;;;;;;;6.38;5.53;;;;;;;2.81;76.81;98881.66;5018124;28;20686;-73
2022/04/02 10:40:32;;;;;;;7.40;5.43;;;;;;;2.86;76.76;98897.84;5018664;28;20198;-73
2022/04/02 10:43:06;;;;;;;5.05;4.35;;;;;;;2.82;76.59;98883.34;5018382;28;20197;-74
2022/04/02 10:45:37;;;;;;;5.88;4.47;;;;;;;2.79;76.67;98884.31;5017905;28;20373;-74
2022/04/02 10:48:09;;;;;;;7.60;5.47;;;;;;;2.81;76.61;98892.88;5018212;28;20466;-75
2022/04/02 10:50:35;;;;;;;5.03;3.58;;;;;;;2.83;76.79;98893.63;5017166;28;20238;-75
2022/04/02 10:53:02;;;;;;;5.88;5.28;;;;;;;2.79;76.89;98899.88;5019977;28;20337;-73
2022/04/02 10:55:29;;;;;;;6.53;5.88;;;;;;;2.76;76.92;98901.78;5019324;28;20225;-74
2022/04/02 10:57:59;;;;;;;9.55;5.78;;;;;;;2.70;77.05;98902.00;5016829;28;20391;-74
2022/04/02 11:00:26;;;;;;;5.05;4.35;;;;;;;2.70;76.97;98894.22;5017755;28;20204;-75
2022/04/02 11:03:01;;;;;;;7.70;6.70;;;;;;;2.73;76.89;98894.09;5018529;28;20613;-74
2022/04/02 11:05:33;;;;;;;6.68;5.57;;;;;;;2.81;76.89;98911.03;5018178;28;20222;-74
2022/04/02 11:08:13;;;;;;;5.50;4.22;;;;;;;2.72;75.24;98905.38;5021936;28;20210;-75
2022/04/02 11:10:47;;;;;;;5.47;4.30;;;;;;;2.65;75.69;98912.59;5019956;28;20339;-73
2022/04/02 11:13:28;;;;;;;7.40;5.25;;;;;;;2.66;75.67;98915.09;5021339;28;20398;-75
2022/04/02 11:15:54;;;;;;;6.80;5.22;;;;;;;2.61;75.45;98908.44;5022264;28;20237;-74
2022/04/02 11:18:22;;;;;;;10.77;7.85;;;;;;;2.59;75.84;98920.63;5022744;28;20198;-74
2022/04/02 11:20:53;;;;;;;6.90;6.13;;;;;;;2.56;75.55;98912.97;5024018;28;20284;-77
2022/04/02 11:23:45;;;;;;;7.57;5.90;;;;;;;2.61;75.96;98924.81;5026545;28;20739;-77
2022/04/02 11:26:14;;;;;;;6.40;5.80;;;;;;;2.70;76.07;98921.03;5028926;28;20593;-78
2022/04/02 11:28:44;;;;;;;9.68;5.90;;;;;;;2.76;75.83;98927.69;5038323;28;20422;-73
2022/04/02 11:31:13;;;;;;;5.53;4.45;;;;;;;2.72;75.36;98937.34;5023283;28;20786;-75
2022/04/02 11:33:56;;;;;;;6.78;5.40;;;;;;;2.72;75.86;98932.16;5022952;28;20651;-77
2022/04/02 11:36:43;;;;;;;7.63;5.50;;;;;;;2.75;75.58;98934.63;5023217;28;20212;-74
2022/04/02 11:39:26;;;;;;;8.27;7.00;;;;;;;2.79;75.86;98941.38;5039329;28;20221;-76
2022/04/02 11:41:57;;;;;;;6.70;4.55;;;;;;;2.81;75.25;98941.31;5024904;28;20206;-76
2022/04/02 11:44:37;;;;;;;7.15;6.35;;;;;;;2.80;75.96;98945.63;5025084;28;20229;-75
2022/04/02 11:47:24;;;;;;;7.78;6.25;;;;;;;2.82;75.48;98948.19;5023006;28;20221;-74
2022/04/02 11:50:02;;;;;;;7.00;6.05;;;;;;;2.86;75.91;98952.31;5021323;28;20261;-76
2022/04/02 11:53:11;;;;;;;7.88;4.70;;;;;;;2.87;76.12;98948.84;5026852;28;20221;-76